Time;durP1;ratioP1;P1;durP2;ratioP2;P2;SDS_P1;SDS_P2;PMS_P1;PMS_P2;Temp;Humidity;BMP_temperature;BMP_pressure;BME280_temperature;BME280_humidity;BME280_pressure;Samples;Min_cycle;Max_cycle;Signal;HPM_P1;HPM_P2
2021/09/20 00:01:44;;;;;;;;;;;;;;;;;;5052064;28;19925;-64
2021/09/20 00:04:11;;;;;;;;;;;;;;;;;;5052620;28;19929;-63
2021/09/20 00:06:38;;;;;;;;;;;;;;;;;;5052675;28;19931;-63
2021/09/20 00:09:05;;;;;;;;;;;;;;;;;;5052536;28;19924;-63
2021/09/20 00:11:32;;;;;;;;;;;;;;;;;;5052243;28;19925;-65
2021/09/20 00:13:59;;;;;;;;;;;;;;;;;;5051827;28;19925;-64
2021/09/20 00:16:25;;;;;;;;;;;;;;;;;;5050928;28;19935;-63
2021/09/20 00:18:52;;;;;;;;;;;;;;;;;;5045738;28;19932;-63
2021/09/20 00:21:19;;;;;;;;;;;;;;;;;;5051927;28;19925;-63
2021/09/20 00:23:46;;;;;;;;;;;;;;;;;;5052199;28;20404;-64
2021/09/20 00:26:16;;;;;;;;;;;;;;;;;;5050955;28;19954;-64
2021/09/20 00:28:43;;;;;;;;;;;;;;;;;;5051834;28;19925;-64
2021/09/20 00:31:10;;;;;;;;;;;;;;;;;;5051588;28;19947;-64
2021/09/20 00:33:37;;;;;;;;;;;;;;;;;;5053662;28;19925;-64
2021/09/20 00:36:04;;;;;;;;;;;;;;;;;;5053649;28;19931;-64
2021/09/20 00:38:31;;;;;;;;;;;;;;;;;;5053524;28;19952;-64
2021/09/20 00:40:58;;;;;;;;;;;;;;;;;;5052025;28;19924;-64
2021/09/20 00:43:25;;;;;;;;;;;;;;;;;;5052229;28;19932;-64
2021/09/20 00:45:51;;;;;;;;;;;;;;;;;;5052061;28;19925;-65
2021/09/20 00:48:18;;;;;;;;;;;;;;;;;;5052138;28;19929;-65
2021/09/20 00:50:45;;;;;;;;;;;;;;;;;;5051156;28;19924;-65
2021/09/20 00:53:12;;;;;;;;;;;;;;;;;;5051588;28;19954;-65
2021/09/20 00:55:40;;;;;;;;;;;;;;;;;;5051299;28;19951;-65
2021/09/20 00:58:07;;;;;;;;;;;;;;;;;;5051779;28;19983;-65
2021/09/20 01:00:34;;;;;;;;;;;;;;;;;;5051281;28;20286;-65
2021/09/20 01:03:01;;;;;;;;;;;;;;;;;;5051299;28;19928;-65
2021/09/20 01:05:28;;;;;;;;;;;;;;;;;;5051434;28;19947;-65
2021/09/20 01:07:55;;;;;;;;;;;;;;;;;;5051410;28;19925;-65
2021/09/20 01:10:22;;;;;;;;;;;;;;;;;;5050734;28;19931;-65
2021/09/20 01:12:49;;;;;;;;;;;;;;;;;;5051094;28;19936;-65
2021/09/20 01:15:16;;;;;;;;;;;;;;;;;;5051447;28;20288;-65
2021/09/20 01:17:43;;;;;;;;;;;;;;;;;;5051539;28;19931;-65
2021/09/20 01:20:11;;;;;;;;;;;;;;;;;;5050985;28;19925;-65
2021/09/20 01:22:38;;;;;;;;;;;;;;;;;;5047483;28;20019;-65
2021/09/20 01:25:05;;;;;;;;;;;;;;;;;;5051190;28;19936;-65
2021/09/20 01:27:32;;;;;;;;;;;;;;;;;;5051320;28;19925;-65
2021/09/20 01:29:59;;;;;;;;;;;;;;;;;;5051167;28;19935;-65
2021/09/20 01:32:26;;;;;;;;;;;;;;;;;;5045255;28;19924;-65
2021/09/20 01:34:53;;;;;;;;;;;;;;;;;;5051018;28;19940;-65
2021/09/20 01:37:20;;;;;;;;;;;;;;;;;;5050917;28;19925;-65
2021/09/20 01:39:47;;;;;;;;;;;;;;;;;;5050628;28;20384;-65
2021/09/20 01:42:14;;;;;;;;;;;;;;;;;;5051234;28;19954;-66
2021/09/20 01:44:41;;;;;;;;;;;;;;;;;;5051981;28;19925;-67
2021/09/20 01:47:08;;;;;;;;;;;;;;;;;;5054787;28;19925;-64
2021/09/20 01:49:35;;;;;;;;;;;;;;;;;;5054512;28;19932;-65
2021/09/20 01:52:02;;;;;;;;;;;;;;;;;;5054426;28;19925;-65
2021/09/20 01:54:28;;;;;;;;;;;;;;;;;;5054488;28;19924;-65
2021/09/20 01:56:56;;;;;;;;;;;;;;;;;;5054587;28;19924;-65
2021/09/20 01:59:23;;;;;;;;;;;;;;;;;;5054713;28;20309;-65
2021/09/20 02:01:50;;;;;;;;;;;;;;;;;;5054815;28;19932;-65
2021/09/20 02:04:17;;;;;;;;;;;;;;;;;;5054328;28;19924;-65
2021/09/20 02:06:44;;;;;;;;;;;;;;;;;;5054510;28;19931;-65
2021/09/20 02:09:12;;;;;;;;;;;;;;;;;;5054703;28;19931;-64
2021/09/20 02:11:39;;;;;;;;;;;;;;;;;;5054605;28;19975;-64
2021/09/20 02:14:06;;;;;;;;;;;;;;;;;;5054373;28;19924;-64
2021/09/20 02:16:33;;;;;;;;;;;;;;;;;;5054382;28;19924;-64
2021/09/20 02:19:00;;;;;;;;;;;;;;;;;;5054453;28;19948;-64
2021/09/20 02:21:26;;;;;;;;;;;;;;;;;;5053630;28;19925;-64
2021/09/20 02:23:53;;;;;;;;;;;;;;;;;;5054110;28;19925;-64
2021/09/20 02:26:20;;;;;;;;;;;;;;;;;;5054249;28;19929;-65
2021/09/20 02:28:47;;;;;;;;;;;;;;;;;;5054332;28;19932;-65
2021/09/20 02:31:14;;;;;;;;;;;;;;;;;;5053937;28;19931;-66
2021/09/20 02:33:41;;;;;;;;;;;;;;;;;;5053649;28;20395;-65
2021/09/20 02:36:08;;;;;;;;;;;;;;;;;;5054062;28;19936;-65
2021/09/20 02:38:35;;;;;;;;;;;;;;;;;;5053942;28;19924;-65
2021/09/20 02:41:02;;;;;;;;;;;;;;;;;;5053617;28;20377;-65
2021/09/20 02:43:29;;;;;;;;;;;;;;;;;;5053770;28;19928;-65
2021/09/20 02:45:56;;;;;;;;;;;;;;;;;;5053872;28;20336;-65
2021/09/20 02:48:23;;;;;;;;;;;;;;;;;;5050125;28;19944;-65
2021/09/20 02:50:50;;;;;;;;;;;;;;;;;;5053439;28;19924;-65
2021/09/20 02:53:17;;;;;;;;;;;;;;;;;;5053674;28;20297;-65
2021/09/20 02:55:44;;;;;;;;;;;;;;;;;;5053130;28;19925;-65
2021/09/20 02:58:11;;;;;;;;;;;;;;;;;;5053101;28;19924;-65
2021/09/20 03:00:38;;;;;;;;;;;;;;;;;;5053043;28;19925;-65
2021/09/20 03:03:07;;;;;;;;;;;;;;;;;;5053624;28;20300;-65
2021/09/20 03:05:34;;;;;;;;;;;;;;;;;;5053439;28;19932;-65
2021/09/20 03:08:01;;;;;;;;;;;;;;;;;;5053204;28;19924;-66
2021/09/20 03:10:28;;;;;;;;;;;;;;;;;;5053063;28;19931;-65
2021/09/20 03:12:55;;;;;;;;;;;;;;;;;;5053036;28;19925;-65
2021/09/20 03:15:22;;;;;;;;;;;;;;;;;;5052670;28;19931;-65
2021/09/20 03:17:49;;;;;;;;;;;;;;;;;;5053199;28;20419;-65
2021/09/20 03:20:16;;;;;;;;;;;;;;;;;;5053012;28;19962;-65
2021/09/20 03:22:43;;;;;;;;;;;;;;;;;;5053196;28;19932;-65
2021/09/20 03:25:10;;;;;;;;;;;;;;;;;;5052458;28;19932;-65
2021/09/20 03:27:37;;;;;;;;;;;;;;;;;;5052983;28;20278;-65
2021/09/20 03:30:04;;;;;;;;;;;;;;;;;;5052347;28;19925;-65
2021/09/20 03:32:31;;;;;;;;;;;;;;;;;;5053067;28;20277;-65
2021/09/20 03:34:58;;;;;;;;;;;;;;;;;;5053142;28;19935;-65
2021/09/20 03:37:25;;;;;;;;;;;;;;;;;;5053001;28;19924;-65
2021/09/20 03:39:52;;;;;;;;;;;;;;;;;;5052402;28;19932;-65
2021/09/20 03:42:19;;;;;;;;;;;;;;;;;;5053084;28;19929;-65
2021/09/20 03:44:46;;;;;;;;;;;;;;;;;;5052842;28;19928;-65
2021/09/20 03:47:13;;;;;;;;;;;;;;;;;;5052951;28;20293;-65
2021/09/20 03:49:39;;;;;;;;;;;;;;;;;;5052280;28;19928;-65
2021/09/20 03:52:06;;;;;;;;;;;;;;;;;;5048696;28;20388;-65
2021/09/20 03:54:34;;;;;;;;;;;;;;;;;;5052652;28;19929;-65
2021/09/20 03:57:01;;;;;;;;;;;;;;;;;;5052406;28;19970;-65
2021/09/20 03:59:29;;;;;;;;;;;;;;;;;;5052476;28;19931;-65
2021/09/20 04:01:57;;;;;;;;;;;;;;;;;;5046754;28;19982;-65
2021/09/20 04:04:24;;;;;;;;;;;;;;;;;;5052238;28;19928;-65
2021/09/20 04:06:50;;;;;;;;;;;;;;;;;;5052431;28;19931;-65
2021/09/20 04:09:18;;;;;;;;;;;;;;;;;;5051721;28;19986;-65
2021/09/20 04:11:45;;;;;;;;;;;;;;;;;;5052318;28;20395;-66
2021/09/20 04:14:12;;;;;;;;;;;;;;;;;;5050834;28;20296;-65
2021/09/20 04:16:39;;;;;;;;;;;;;;;;;;5052182;28;19925;-65
2021/09/20 04:19:05;;;;;;;;;;;;;;;;;;5051650;28;20385;-65
2021/09/20 04:21:32;;;;;;;;;;;;;;;;;;5051819;28;20015;-65
2021/09/20 04:23:59;;;;;;;;;;;;;;;;;;5051540;28;19935;-65
2021/09/20 04:26:26;;;;;;;;;;;;;;;;;;5051865;28;19925;-65
2021/09/20 04:28:53;;;;;;;;;;;;;;;;;;5052049;28;20377;-65
2021/09/20 04:31:20;;;;;;;;;;;;;;;;;;5051326;28;19932;-65
2021/09/20 04:33:47;;;;;;;;;;;;;;;;;;5051633;28;20003;-65
2021/09/20 04:36:14;;;;;;;;;;;;;;;;;;5051558;28;19925;-65
2021/09/20 04:38:41;;;;;;;;;;;;;;;;;;5051530;28;19925;-65
2021/09/20 04:41:08;;;;;;;;;;;;;;;;;;5051089;28;19928;-65
2021/09/20 04:43:35;;;;;;;;;;;;;;;;;;5051314;28;20007;-65
2021/09/20 04:46:02;;;;;;;;;;;;;;;;;;5051931;28;19925;-65
2021/09/20 04:48:29;;;;;;;;;;;;;;;;;;5051448;28;19935;-65
2021/09/20 04:50:57;;;;;;;;;;;;;;;;;;5051258;28;19946;-65
2021/09/20 04:53:24;;;;;;;;;;;;;;;;;;5050989;28;19925;-65
2021/09/20 04:55:51;;;;;;;;;;;;;;;;;;5051752;28;19931;-65
2021/09/20 04:58:21;;;;;;;;;;;;;;;;;;5051684;28;20019;-65
2021/09/20 05:00:47;;;;;;;;;;;;;;;;;;5050805;28;19929;-65
2021/09/20 05:03:14;;;;;;;;;;;;;;;;;;5051000;28;19951;-65
2021/09/20 05:05:41;;;;;;;;;;;;;;;;;;5051233;28;19924;-65
2021/09/20 05:08:08;;;;;;;;;;;;;;;;;;5051778;28;20289;-65
2021/09/20 05:10:35;;;;;;;;;;;;;;;;;;5051023;28;19935;-65
2021/09/20 05:13:02;;;;;;;;;;;;;;;;;;5051292;28;20020;-65
2021/09/20 05:15:29;;;;;;;;;;;;;;;;;;5051194;28;19928;-67
2021/09/20 05:17:56;;;;;;;;;;;;;;;;;;5051011;28;19971;-65
2021/09/20 05:20:23;;;;;;;;;;;;;;;;;;5052574;28;20207;-65
2021/09/20 05:22:50;;;;;;;;;;;;;;;;;;5055326;28;19951;-65
2021/09/20 05:25:17;;;;;;;;;;;;;;;;;;5055415;28;19932;-65
2021/09/20 05:27:44;;;;;;;;;;;;;;;;;;5055207;28;20212;-65
2021/09/20 05:30:11;;;;;;;;;;;;;;;;;;5055134;28;20403;-65
2021/09/20 05:32:38;;;;;;;;;;;;;;;;;;5054673;28;20537;-65
2021/09/20 05:35:05;;;;;;;;;;;;;;;;;;5054869;28;19925;-64
2021/09/20 05:37:32;;;;;;;;;;;;;;;;;;5055094;28;19925;-65
2021/09/20 05:39:59;;;;;;;;;;;;;;;;;;5054724;28;20004;-65
2021/09/20 05:42:25;;;;;;;;;;;;;;;;;;5054694;28;20281;-65
2021/09/20 05:44:52;;;;;;;;;;;;;;;;;;5055205;28;19932;-65
2021/09/20 05:47:19;;;;;;;;;;;;;;;;;;5054881;28;19935;-65
2021/09/20 05:49:46;;;;;;;;;;;;;;;;;;5054431;28;19924;-65
2021/09/20 05:52:15;;;;;;;;;;;;;;;;;;5054135;28;20172;-65
2021/09/20 05:54:42;;;;;;;;;;;;;;;;;;5054711;28;19981;-65
2021/09/20 05:57:09;;;;;;;;;;;;;;;;;;5054833;28;19925;-65
2021/09/20 05:59:36;;;;;;;;;;;;;;;;;;5054179;28;19925;-65
2021/09/20 06:02:03;;;;;;;;;;;;;;;;;;5054498;28;19925;-65
2021/09/20 06:04:30;;;;;;;;;;;;;;;;;;5054362;28;19925;-65
2021/09/20 06:06:57;;;;;;;;;;;;;;;;;;5053801;28;19925;-65
2021/09/20 06:09:24;;;;;;;;;;;;;;;;;;5053871;28;20329;-65
2021/09/20 06:11:50;;;;;;;;;;;;;;;;;;5054021;28;20551;-65
2021/09/20 06:14:17;;;;;;;;;;;;;;;;;;5053916;28;19924;-65
2021/09/20 06:16:44;;;;;;;;;;;;;;;;;;5053547;28;19925;-65
2021/09/20 06:19:11;;;;;;;;;;;;;;;;;;5054093;28;20385;-65
2021/09/20 06:21:38;;;;;;;;;;;;;;;;;;5053718;28;19925;-65
2021/09/20 06:24:05;;;;;;;;;;;;;;;;;;5053994;28;19929;-65
2021/09/20 06:26:32;;;;;;;;;;;;;;;;;;5053871;28;19925;-65
2021/09/20 06:29:00;;;;;;;;;;;;;;;;;;5053589;28;19924;-65
2021/09/20 06:31:27;;;;;;;;;;;;;;;;;;5051008;28;20452;-65
2021/09/20 06:33:54;;;;;;;;;;;;;;;;;;5053888;28;20236;-65
2021/09/20 06:36:21;;;;;;;;;;;;;;;;;;5053748;28;19928;-65
2021/09/20 06:38:48;;;;;;;;;;;;;;;;;;5053533;28;19931;-65
2021/09/20 06:41:15;;;;;;;;;;;;;;;;;;5053262;28;20316;-65
2021/09/20 06:43:41;;;;;;;;;;;;;;;;;;5053086;28;19955;-65
2021/09/20 06:46:08;;;;;;;;;;;;;;;;;;5053427;28;19931;-65
2021/09/20 06:48:35;;;;;;;;;;;;;;;;;;5053684;28;20317;-65
2021/09/20 06:51:02;;;;;;;;;;;;;;;;;;5053055;28;19925;-65
2021/09/20 06:53:29;;;;;;;;;;;;;;;;;;5053252;28;19925;-65
2021/09/20 06:55:56;;;;;;;;;;;;;;;;;;5053322;28;19925;-66
2021/09/20 06:58:23;;;;;;;;;;;;;;;;;;5053110;28;19929;-66
2021/09/20 07:00:50;;;;;;;;;;;;;;;;;;5052593;28;19935;-66
2021/09/20 07:03:17;;;;;;;;;;;;;;;;;;5053220;28;20301;-66
2021/09/20 07:05:44;;;;;;;;;;;;;;;;;;5053248;28;19925;-65
2021/09/20 07:08:11;;;;;;;;;;;;;;;;;;5053079;28;19924;-66
2021/09/20 07:10:38;;;;;;;;;;;;;;;;;;5052809;28;20011;-65
2021/09/20 07:13:09;;;;;;;;;;;;;;;;;;5053215;28;19925;-65
2021/09/20 07:15:36;;;;;;;;;;;;;;;;;;5053147;28;19925;-66
2021/09/20 07:18:03;;;;;;;;;;;;;;;;;;5052894;28;20402;-65
2021/09/20 07:20:30;;;;;;;;;;;;;;;;;;5052729;28;19928;-66
2021/09/20 07:22:57;;;;;;;;;;;;;;;;;;5052577;28;19931;-66
2021/09/20 07:25:24;;;;;;;;;;;;;;;;;;5052691;28;19925;-66
2021/09/20 07:27:51;;;;;;;;;;;;;;;;;;5052771;28;19924;-65
2021/09/20 07:30:18;;;;;;;;;;;;;;;;;;5052245;28;20381;-66
2021/09/20 07:32:45;;;;;;;;;;;;;;;;;;5052542;28;20437;-65
2021/09/20 07:35:13;;;;;;;;;;;;;;;;;;5052633;28;19924;-66
2021/09/20 07:37:40;;;;;;;;;;;;;;;;;;5052515;28;19924;-66
2021/09/20 07:40:06;;;;;;;;;;;;;;;;;;5052136;28;20308;-66
2021/09/20 07:42:33;;;;;;;;;;;;;;;;;;5051744;28;19929;-66
2021/09/20 07:45:00;;;;;;;;;;;;;;;;;;5052712;28;19929;-65
2021/09/20 07:47:27;;;;;;;;;;;;;;;;;;5051859;28;19932;-65
2021/09/20 07:49:54;;;;;;;;;;;;;;;;;;5052020;28;19925;-66
2021/09/20 07:52:21;;;;;;;;;;;;;;;;;;5051964;28;19928;-63
2021/09/20 07:54:48;;;;;;;;;;;;;;;;;;5052595;28;19925;-63
2021/09/20 07:57:15;;;;;;;;;;;;;;;;;;5052071;28;19924;-63
2021/09/20 07:59:42;;;;;;;;;;;;;;;;;;5052010;28;19925;-63
2021/09/20 08:02:09;;;;;;;;;;;;;;;;;;5051899;28;19925;-63
2021/09/20 08:04:36;;;;;;;;;;;;;;;;;;5052271;28;19932;-63
2021/09/20 08:07:03;;;;;;;;;;;;;;;;;;5051822;28;19931;-63
2021/09/20 08:09:30;;;;;;;;;;;;;;;;;;5051704;28;19947;-63
2021/09/20 08:11:57;;;;;;;;;;;;;;;;;;5052001;28;20292;-62
2021/09/20 08:14:24;;;;;;;;;;;;;;;;;;5051838;28;19924;-63
2021/09/20 08:16:51;;;;;;;;;;;;;;;;;;5051820;28;19929;-63
2021/09/20 08:19:18;;;;;;;;;;;;;;;;;;5051201;28;19925;-63
2021/09/20 08:21:45;;;;;;;;;;;;;;;;;;5051392;28;19928;-63
2021/09/20 08:24:12;;;;;;;;;;;;;;;;;;5051937;28;19925;-63
2021/09/20 08:26:39;;;;;;;;;;;;;;;;;;5051935;28;19947;-63
2021/09/20 08:29:06;;;;;;;;;;;;;;;;;;5051482;28;19929;-63
2021/09/20 08:31:33;;;;;;;;;;;;;;;;;;5051413;28;19947;-63
2021/09/20 08:34:00;;;;;;;;;;;;;;;;;;5041406;28;19936;-63
2021/09/20 08:36:27;;;;;;;;;;;;;;;;;;5051339;28;19925;-63
2021/09/20 08:38:54;;;;;;;;;;;;;;;;;;5051710;28;19924;-63
2021/09/20 08:41:21;;;;;;;;;;;;;;;;;;5051390;28;19925;-63
2021/09/20 08:43:48;;;;;;;;;;;;;;;;;;5050994;28;19925;-63
2021/09/20 08:46:15;;;;;;;;;;;;;;;;;;5051525;28;19931;-63
2021/09/20 08:48:42;;;;;;;;;;;;;;;;;;5050932;28;19925;-63
2021/09/20 08:51:09;;;;;;;;;;;;;;;;;;5051389;28;19931;-63
2021/09/20 08:53:36;;;;;;;;;;;;;;;;;;5050526;28;20009;-64
2021/09/20 08:56:03;;;;;;;;;;;;;;;;;;5051016;28;19925;-63
2021/09/20 08:58:30;;;;;;;;;;;;;;;;;;5051026;28;19929;-63
2021/09/20 09:00:57;;;;;;;;;;;;;;;;;;5050869;28;19994;-63
2021/09/20 09:03:24;;;;;;;;;;;;;;;;;;5050891;28;19936;-65
2021/09/20 09:05:51;;;;;;;;;;;;;;;;;;5051332;28;20439;-65
2021/09/20 09:08:18;;;;;;;;;;;;;;;;;;5051416;28;20296;-64
2021/09/20 09:10:45;;;;;;;;;;;;;;;;;;5050833;28;19924;-65
2021/09/20 09:13:13;;;;;;;;;;;;;;;;;;5051113;28;19931;-65
2021/09/20 09:15:40;;;;;;;;;;;;;;;;;;5050900;28;19936;-65
2021/09/20 09:18:07;;;;;;;;;;;;;;;;;;5050926;28;19924;-65
2021/09/20 09:20:34;;;;;;;;;;;;;;;;;;5051417;28;19925;-65
2021/09/20 09:23:01;;;;;;;;;;;;;;;;;;5051357;28;19983;-64
2021/09/20 09:25:28;;;;;;;;;;;;;;;;;;5051266;28;19931;-65
2021/09/20 09:27:55;;;;;;;;;;;;;;;;;;5051126;28;19925;-64
2021/09/20 09:30:22;;;;;;;;;;;;;;;;;;5046906;28;20299;-64
2021/09/20 09:32:49;;;;;;;;;;;;;;;;;;5050712;28;19929;-64
2021/09/20 09:35:16;;;;;;;;;;;;;;;;;;5051209;28;20028;-64
2021/09/20 09:37:43;;;;;;;;;;;;;;;;;;5050619;28;20419;-64
2021/09/20 09:40:10;;;;;;;;;;;;;;;;;;5050740;28;19929;-64
2021/09/20 09:42:37;;;;;;;;;;;;;;;;;;5050733;28;19925;-64
2021/09/20 09:45:04;;;;;;;;;;;;;;;;;;5050917;28;19928;-64
2021/09/20 09:47:31;;;;;;;;;;;;;;;;;;5051020;28;20316;-63
2021/09/20 09:49:58;;;;;;;;;;;;;;;;;;5050672;28;19925;-64
2021/09/20 09:52:25;;;;;;;;;;;;;;;;;;5050887;28;19925;-64
2021/09/20 09:54:51;;;;;;;;;;;;;;;;;;5050787;28;19932;-64
2021/09/20 09:57:18;;;;;;;;;;;;;;;;;;5050752;28;19924;-64
2021/09/20 09:59:45;;;;;;;;;;;;;;;;;;5050827;28;19929;-65
2021/09/20 10:02:12;;;;;;;;;;;;;;;;;;5050541;28;20303;-64
2021/09/20 10:04:39;;;;;;;;;;;;;;;;;;5050684;28;19982;-66
2021/09/20 10:07:06;;;;;;;;;;;;;;;;;;5053730;28;19929;-65
2021/09/20 10:09:33;;;;;;;;;;;;;;;;;;5054228;28;20282;-66
2021/09/20 10:12:00;;;;;;;;;;;;;;;;;;5053875;28;19932;-65
2021/09/20 10:14:27;;;;;;;;;;;;;;;;;;5054581;28;19928;-65
2021/09/20 10:16:54;;;;;;;;;;;;;;;;;;5046812;28;20212;-65
2021/09/20 10:19:21;;;;;;;;;;;;;;;;;;5053050;28;19939;-65
2021/09/20 10:21:48;;;;;;;;;;;;;;;;;;5053743;28;19924;-64
2021/09/20 10:24:15;;;;;;;;;;;;;;;;;;5054107;28;20003;-64
2021/09/20 10:26:42;;;;;;;;;;;;;;;;;;5053656;28;20304;-63
2021/09/20 10:29:09;;;;;;;;;;;;;;;;;;5053729;28;19924;-64
2021/09/20 10:31:36;;;;;;;;;;;;;;;;;;5053856;28;19964;-63
2021/09/20 10:34:03;;;;;;;;;;;;;;;;;;5053919;28;20273;-64
2021/09/20 10:36:30;;;;;;;;;;;;;;;;;;5053946;28;19935;-64
2021/09/20 10:38:57;;;;;;;;;;;;;;;;;;5053328;28;20397;-63
2021/09/20 10:41:24;;;;;;;;;;;;;;;;;;5053356;28;19931;-63
2021/09/20 10:43:51;;;;;;;;;;;;;;;;;;5053552;28;19929;-64
2021/09/20 10:46:18;;;;;;;;;;;;;;;;;;5053925;28;19924;-63
2021/09/20 10:48:45;;;;;;;;;;;;;;;;;;5053827;28;20384;-63
2021/09/20 10:51:12;;;;;;;;;;;;;;;;;;5053367;28;19948;-63
2021/09/20 10:53:40;;;;;;;;;;;;;;;;;;5043453;28;19925;-64
2021/09/20 10:56:07;;;;;;;;;;;;;;;;;;5053574;28;19925;-64
2021/09/20 10:58:34;;;;;;;;;;;;;;;;;;5053543;28;19924;-64
2021/09/20 11:01:01;;;;;;;;;;;;;;;;;;5053093;28;19928;-64
2021/09/20 11:03:28;;;;;;;;;;;;;;;;;;5053360;28;20381;-64
2021/09/20 11:05:55;;;;;;;;;;;;;;;;;;5053347;28;19925;-64
2021/09/20 11:08:22;;;;;;;;;;;;;;;;;;5052929;28;20332;-64
2021/09/20 11:10:49;;;;;;;;;;;;;;;;;;5053607;28;19925;-64
2021/09/20 11:13:15;;;;;;;;;;;;;;;;;;5052423;28;19931;-64
2021/09/20 11:15:43;;;;;;;;;;;;;;;;;;5053139;28;19931;-64
2021/09/20 11:18:09;;;;;;;;;;;;;;;;;;5052011;28;20023;-64
2021/09/20 11:20:36;;;;;;;;;;;;;;;;;;5052799;28;19931;-64
2021/09/20 11:23:03;;;;;;;;;;;;;;;;;;5052771;28;20572;-64
2021/09/20 11:25:30;;;;;;;;;;;;;;;;;;5052808;28;19951;-64
2021/09/20 11:27:57;;;;;;;;;;;;;;;;;;5052977;28;19925;-64
2021/09/20 11:30:24;;;;;;;;;;;;;;;;;;5052726;28;19925;-64
2021/09/20 11:32:52;;;;;;;;;;;;;;;;;;5046091;28;19959;-64
2021/09/20 11:35:19;;;;;;;;;;;;;;;;;;5052137;28;19931;-64
2021/09/20 11:37:46;;;;;;;;;;;;;;;;;;5052795;28;20024;-64
2021/09/20 11:40:13;;;;;;;;;;;;;;;;;;5052680;28;19924;-64
2021/09/20 11:42:40;;;;;;;;;;;;;;;;;;5052346;28;19944;-63
2021/09/20 11:45:07;;;;;;;;;;;;;;;;;;5052725;28;19928;-63
2021/09/20 11:47:34;;;;;;;;;;;;;;;;;;5052222;28;20015;-63
2021/09/20 11:50:01;;;;;;;;;;;;;;;;;;5052017;28;19924;-63
2021/09/20 11:52:28;;;;;;;;;;;;;;;;;;5052129;28;19929;-64
2021/09/20 11:54:55;;;;;;;;;;;;;;;;;;5052431;28;20411;-63
2021/09/20 11:57:22;;;;;;;;;;;;;;;;;;5052503;28;19931;-63
2021/09/20 11:59:49;;;;;;;;;;;;;;;;;;5048234;28;19931;-63
2021/09/20 12:02:16;;;;;;;;;;;;;;;;;;5051646;28;20396;-63
2021/09/20 12:04:43;;;;;;;;;;;;;;;;;;5051971;28;19925;-63
2021/09/20 12:07:10;;;;;;;;;;;;;;;;;;5052298;28;19933;-63
2021/09/20 12:09:37;;;;;;;;;;;;;;;;;;5051662;28;19924;-63
2021/09/20 12:12:04;;;;;;;;;;;;;;;;;;5051717;28;19931;-63
2021/09/20 12:14:31;;;;;;;;;;;;;;;;;;5051936;28;19925;-63
2021/09/20 12:16:58;;;;;;;;;;;;;;;;;;5051809;28;20355;-63
2021/09/20 12:19:27;;;;;;;;;;;;;;;;;;5051387;28;19929;-63
2021/09/20 12:21:54;;;;;;;;;;;;;;;;;;5052026;28;19976;-64
2021/09/20 12:24:21;;;;;;;;;;;;;;;;;;5051721;28;19932;-63
2021/09/20 12:26:48;;;;;;;;;;;;;;;;;;5051603;28;20392;-64
2021/09/20 12:29:15;;;;;;;;;;;;;;;;;;5051632;28;20015;-66
2021/09/20 12:31:43;;;;;;;;;;;;;;;;;;5051516;28;20015;-66
2021/09/20 12:34:12;;;;;;;;;;;;;;;;;;5051740;28;20393;-65
2021/09/20 12:36:39;;;;;;;;;;;;;;;;;;5051886;28;19929;-65
2021/09/20 12:39:06;;;;;;;;;;;;;;;;;;5051702;28;20388;-65
2021/09/20 12:41:33;;;;;;;;;;;;;;;;;;5051692;28;19925;-64
2021/09/20 12:44:00;;;;;;;;;;;;;;;;;;5051559;28;19925;-65
2021/09/20 12:46:27;;;;;;;;;;;;;;;;;;5047952;28;20020;-61
2021/09/20 12:48:54;;;;;;;;;;;;;;;;;;5051148;28;19925;-65
2021/09/20 12:51:21;;;;;;;;;;;;;;;;;;5051573;28;19935;-65
2021/09/20 12:53:48;;;;;;;;;;;;;;;;;;5051704;28;19932;-66
2021/09/20 12:56:15;;;;;;;;;;;;;;;;;;5051444;28;19924;-65
2021/09/20 12:58:47;;;;;;;;;;;;;;;;;;5051331;28;19929;-66
2021/09/20 13:01:14;;;;;;;;;;;;;;;;;;5051421;28;19952;-65
2021/09/20 13:03:41;;;;;;;;;;;;;;;;;;5051378;28;20028;-66
2021/09/20 13:06:08;;;;;;;;;;;;;;;;;;5051288;28;19925;-64
2021/09/20 13:08:37;;;;;;;;;;;;;;;;;;5051457;28;20015;-66
2021/09/20 13:11:04;;;;;;;;;;;;;;;;;;5050853;28;20015;-64
2021/09/20 13:13:31;;;;;;;;;;;;;;;;;;5051299;28;19965;-66
2021/09/20 13:15:58;;;;;;;;;;;;;;;;;;5051452;28;20389;-65
2021/09/20 13:18:25;;;;;;;;;;;;;;;;;;5051275;28;19936;-65
2021/09/20 13:20:53;;;;;;;;;;;;;;;;;;5051012;28;20415;-67
2021/09/20 13:23:20;;;;;;;;;;;;;;;;;;5050917;28;19938;-66
2021/09/20 13:25:47;;;;;;;;;;;;;;;;;;5051410;28;20019;-66
2021/09/20 13:28:14;;;;;;;;;;;;;;;;;;5051215;28;19925;-65
2021/09/20 13:30:41;;;;;;;;;;;;;;;;;;5050811;28;19962;-65
2021/09/20 13:33:08;;;;;;;;;;;;;;;;;;5051044;28;20317;-65
2021/09/20 13:35:35;;;;;;;;;;;;;;;;;;5051497;28;20047;-66
2021/09/20 13:38:03;;;;;;;;;;;;;;;;;;5051092;28;19940;-64
2021/09/20 13:40:30;;;;;;;;;;;;;;;;;;5051823;28;19925;-66
2021/09/20 13:42:57;;;;;;;;;;;;;;;;;;5054901;28;19931;-65
2021/09/20 13:45:24;;;;;;;;;;;;;;;;;;5055479;28;19929;-66
2021/09/20 13:47:51;;;;;;;;;;;;;;;;;;5054946;28;19935;-64
2021/09/20 13:50:18;;;;;;;;;;;;;;;;;;5054574;28;19975;-66
2021/09/20 13:52:45;;;;;;;;;;;;;;;;;;5055144;28;20019;-65
2021/09/20 13:55:12;;;;;;;;;;;;;;;;;;5054860;28;20011;-66
2021/09/20 13:57:39;;;;;;;;;;;;;;;;;;5054963;28;20412;-64
2021/09/20 14:00:06;;;;;;;;;;;;;;;;;;5054577;28;19971;-65
2021/09/20 14:02:33;;;;;;;;;;;;;;;;;;5051833;28;20403;-65
2021/09/20 14:05:00;;;;;;;;;;;;;;;;;;5054568;28;19968;-66
2021/09/20 14:07:27;;;;;;;;;;;;;;;;;;5054150;28;20246;-65
2021/09/20 14:09:54;;;;;;;;;;;;;;;;;;5054421;28;20016;-66
2021/09/20 14:12:21;;;;;;;;;;;;;;;;;;5053812;28;19935;-67
2021/09/20 14:14:48;;;;;;;;;;;;;;;;;;5054206;28;19925;-67
2021/09/20 14:17:15;;;;;;;;;;;;;;;;;;5054075;28;19924;-65
2021/09/20 14:19:42;;;;;;;;;;;;;;;;;;5053850;28;19925;-65
2021/09/20 14:22:10;;;;;;;;;;;;;;;;;;5054269;28;19978;-66
2021/09/20 14:24:37;;;;;;;;;;;;;;;;;;5054299;28;19925;-66
2021/09/20 14:27:04;;;;;;;;;;;;;;;;;;5053925;28;20404;-66
2021/09/20 14:29:33;;;;;;;;;;;;;;;;;;5053976;28;19929;-65
2021/09/20 14:32:01;;;;;;;;;;;;;;;;;;5054077;28;19932;-65
2021/09/20 14:34:28;;;;;;;;;;;;;;;;;;5053784;28;19932;-66
2021/09/20 14:36:55;;;;;;;;;;;;;;;;;;5054125;28;20351;-65
2021/09/20 14:39:22;;;;;;;;;;;;;;;;;;5053577;28;19924;-67
2021/09/20 14:41:49;;;;;;;;;;;;;;;;;;5053950;28;20012;-67
2021/09/20 14:44:16;;;;;;;;;;;;;;;;;;5053388;28;19932;-66
2021/09/20 14:46:43;;;;;;;;;;;;;;;;;;5053913;28;20292;-67
2021/09/20 14:49:10;;;;;;;;;;;;;;;;;;5053495;28;19925;-67
2021/09/20 14:51:37;;;;;;;;;;;;;;;;;;5052769;28;19986;-65
2021/09/20 14:54:04;;;;;;;;;;;;;;;;;;5053182;28;20015;-66
2021/09/20 14:56:31;;;;;;;;;;;;;;;;;;5053811;28;20404;-67
2021/09/20 14:58:59;;;;;;;;;;;;;;;;;;5053661;28;19925;-68
2021/09/20 15:01:28;;;;;;;;;;;;;;;;;;5053163;28;19925;-67
2021/09/20 15:03:55;;;;;;;;;;;;;;;;;;5053849;28;19928;-67
2021/09/20 15:06:22;;;;;;;;;;;;;;;;;;5053632;28;20059;-64
2021/09/20 15:08:50;;;;;;;;;;;;;;;;;;5053214;28;19932;-65
2021/09/20 15:11:18;;;;;;;;;;;;;;;;;;5053413;28;19925;-65
2021/09/20 15:13:45;;;;;;;;;;;;;;;;;;5053158;28;19928;-66
2021/09/20 15:16:12;;;;;;;;;;;;;;;;;;5052882;28;19929;-65
2021/09/20 15:18:39;;;;;;;;;;;;;;;;;;5053497;28;20385;-67
2021/09/20 15:21:06;;;;;;;;;;;;;;;;;;5053246;28;19956;-65
2021/09/20 15:23:37;;;;;;;;;;;;;;;;;;5052924;28;20295;-67
2021/09/20 15:26:05;;;;;;;;;;;;;;;;;;5053601;28;20035;-64
2021/09/20 15:28:33;;;;;;;;;;;;;;;;;;5052824;28;19925;-65
2021/09/20 15:31:00;;;;;;;;;;;;;;;;;;5052774;28;20312;-66
2021/09/20 15:33:27;;;;;;;;;;;;;;;;;;5053020;28;19928;-67
2021/09/20 15:35:54;;;;;;;;;;;;;;;;;;5052667;28;19924;-66
2021/09/20 15:38:21;;;;;;;;;;;;;;;;;;5052585;28;20373;-66
2021/09/20 15:40:49;;;;;;;;;;;;;;;;;;5052406;28;19925;-66
2021/09/20 15:43:17;;;;;;;;;;;;;;;;;;5086269;22;20391;-67
2021/09/20 15:45:44;;;;;;;;;;;;;;;;;;5093333;28;19945;-67
2021/09/20 15:48:11;;;;;;;;;;;;;;;;;;5096149;28;19969;-69
2021/09/20 15:50:38;;;;;;;;;;;;;;;;;;5110660;28;20288;-69
2021/09/20 15:53:05;;;;;;;;;;;;;;;;;;5111261;28;19924;-67
2021/09/20 15:55:32;;;;;;;;;;;;;;;;;;5105281;28;20355;-68
2021/09/20 15:57:59;;;;;;;;;;;;;;;;;;5092869;28;20031;-68
2021/09/20 16:00:26;;;;;;;;;;;;;;;;;;5092617;28;19931;-67
2021/09/20 16:02:53;;;;;;;;;;;;;;;;;;5092486;28;19924;-67
2021/09/20 16:05:20;;;;;;;;;;;;;;;;;;5092821;28;19924;-66
2021/09/20 16:07:47;;;;;;;;;;;;;;;;;;5092224;28;19924;-67
2021/09/20 16:10:14;;;;;;;;;;;;;;;;;;5092721;28;19935;-67
2021/09/20 16:12:41;;;;;;;;;;;;;;;;;;5092270;28;19948;-67
2021/09/20 16:15:08;;;;;;;;;;;;;;;;;;5092703;28;20421;-67
2021/09/20 16:17:35;;;;;;;;;;;;;;;;;;5092626;28;19967;-69
2021/09/20 16:20:02;;;;;;;;;;;;;;;;;;5091865;28;20039;-67
2021/09/20 16:22:29;;;;;;;;;;;;;;;;;;5092659;28;20331;-67
2021/09/20 16:24:56;;;;;;;;;;;;;;;;;;5092205;28;19927;-67
2021/09/20 16:27:23;;;;;;;;;;;;;;;;;;5092491;28;19928;-67
2021/09/20 16:29:50;;;;;;;;;;;;;;;;;;5092277;28;19966;-67
2021/09/20 16:32:18;;;;;;;;;;;;;;;;;;5089434;28;19923;-69
2021/09/20 16:34:45;;;;;;;;;;;;;;;;;;5092388;28;20361;-67
2021/09/20 16:37:12;;;;;;;;;;;;;;;;;;5092121;28;20447;-68
2021/09/20 16:39:39;;;;;;;;;;;;;;;;;;5091778;28;19960;-67
2021/09/20 16:42:06;;;;;;;;;;;;;;;;;;5091673;28;19924;-68
2021/09/20 16:44:33;;;;;;;;;;;;;;;;;;5092374;28;20011;-68